AUR84HG EGJB-EHGG
Flight info
| Callsign | AUR84HG |
|---|---|
| Flight time | N/A |
| Altitude | 19000 |
| Route | N0279F190 GULDA G271 BENIX G27 NEVIL M189 JACKO DCT REDFA L620 TULIP Y12 SPY N873 GRONY |
| Aircraft | AT76/M-SBDFGRY/LB1 |
Departure
| Time | 2026-04-25 09:20 |
|---|---|
| Airport | Guernsey Airport (EGJB) |
Arrival
| Time | N/A |
|---|---|
| Airport | Groningen Airport Eelde (EHGG) |
| Time | Latitude | Longitude | Altitude | Speed | Heading |
|---|---|---|---|---|---|
| 2026-04-25 08:23 | 49.43257 | -2.59688 | 341 ft | 0 kts | 179° |
| 2026-04-25 09:08 | 49.43258 | -2.59688 | 341 ft | 2 kts | 179° |
| 2026-04-25 09:08 | 49.43293 | -2.59689 | 341 ft | 4 kts | 178° |
| 2026-04-25 09:08 | 49.43311 | -2.59690 | 341 ft | 4 kts | 178° |
| 2026-04-25 09:09 | 49.43338 | -2.59692 | 341 ft | 4 kts | 178° |
| 2026-04-25 09:09 | 49.43358 | -2.59693 | 341 ft | 0 kts | 178° |
| 2026-04-25 09:13 | 49.43351 | -2.59701 | 337 ft | 2 kts | 228° |
| 2026-04-25 09:13 | 49.43353 | -2.59760 | 338 ft | 11 kts | 257° |
| 2026-04-25 09:13 | 49.43344 | -2.59913 | 341 ft | 17 kts | 268° |
| 2026-04-25 09:14 | 49.43338 | -2.60116 | 334 ft | 21 kts | 267° |
| 2026-04-25 09:14 | 49.43330 | -2.60364 | 332 ft | 24 kts | 272° |
| 2026-04-25 09:14 | 49.43326 | -2.60582 | 326 ft | 19 kts | 274° |
| 2026-04-25 09:14 | 49.43349 | -2.60809 | 322 ft | 23 kts | 280° |
| 2026-04-25 09:15 | 49.43363 | -2.61064 | 316 ft | 23 kts | 268° |
| 2026-04-25 09:15 | 49.43359 | -2.61225 | 312 ft | 0 kts | 274° |
| 2026-04-25 09:17 | 49.43440 | -2.61360 | 309 ft | 14 kts | 346° |
| 2026-04-25 09:17 | 49.43465 | -2.61326 | 310 ft | 0 kts | 84° |
| 2026-04-25 09:19 | 49.43473 | -2.61081 | 315 ft | 64 kts | 87° |
| 2026-04-25 09:20 | 49.43513 | -2.60066 | 597 ft | 105 kts | 86° |
| 2026-04-25 09:20 | 49.43635 | -2.58953 | 1402 ft | 111 kts | 76° |
| 2026-04-25 09:20 | 49.43985 | -2.57856 | 1929 ft | 125 kts | 59° |
| 2026-04-25 09:20 | 49.44287 | -2.56426 | 1988 ft | 162 kts | 86° |
| 2026-04-25 09:21 | 49.44429 | -2.54530 | 2219 ft | 188 kts | 84° |
| 2026-04-25 09:21 | 49.44607 | -2.52478 | 2718 ft | 195 kts | 83° |
| 2026-04-25 09:21 | 49.44816 | -2.50480 | 3451 ft | 186 kts | 80° |
| 2026-04-25 09:21 | 49.45046 | -2.48540 | 4138 ft | 183 kts | 80° |
| 2026-04-25 09:22 | 49.45274 | -2.46614 | 4701 ft | 186 kts | 80° |
| 2026-04-25 09:22 | 49.45495 | -2.44647 | 5265 ft | 188 kts | 81° |
| 2026-04-25 09:22 | 49.45706 | -2.42648 | 5840 ft | 189 kts | 81° |
| 2026-04-25 09:22 | 49.45910 | -2.40660 | 6398 ft | 190 kts | 80° |
| 2026-04-25 09:23 | 49.46117 | -2.38633 | 6939 ft | 191 kts | 80° |
| 2026-04-25 09:23 | 49.46325 | -2.36596 | 7452 ft | 193 kts | 81° |
| 2026-04-25 09:23 | 49.46530 | -2.34573 | 7950 ft | 194 kts | 81° |
| 2026-04-25 09:23 | 49.46739 | -2.32505 | 8450 ft | 195 kts | 81° |
| 2026-04-25 09:24 | 49.46943 | -2.30447 | 8945 ft | 196 kts | 81° |
| 2026-04-25 09:24 | 49.47146 | -2.28390 | 9428 ft | 197 kts | 81° |
| 2026-04-25 09:24 | 49.47355 | -2.26289 | 9903 ft | 198 kts | 82° |
| 2026-04-25 09:24 | 49.47565 | -2.24196 | 10338 ft | 200 kts | 82° |
| 2026-04-25 09:25 | 49.47669 | -2.22094 | 10672 ft | 200 kts | 102° |
| 2026-04-25 09:25 | 49.47146 | -2.20108 | 11050 ft | 201 kts | 117° |
| 2026-04-25 09:25 | 49.46515 | -2.18166 | 11457 ft | 203 kts | 118° |
| 2026-04-25 09:25 | 49.45878 | -2.16239 | 11847 ft | 205 kts | 118° |
| 2026-04-25 09:26 | 49.45495 | -2.14137 | 12242 ft | 209 kts | 87° |
| 2026-04-25 09:26 | 49.46060 | -2.12118 | 12612 ft | 210 kts | 50° |
| 2026-04-25 09:26 | 49.47033 | -2.10398 | 12946 ft | 213 kts | 50° |
| 2026-04-25 09:26 | 49.47953 | -2.08608 | 13330 ft | 215 kts | 54° |
| 2026-04-25 09:27 | 49.48784 | -2.06660 | 13718 ft | 217 kts | 60° |
| 2026-04-25 09:27 | 49.49476 | -2.04621 | 14090 ft | 218 kts | 65° |
| 2026-04-25 09:27 | 49.50095 | -2.02458 | 14431 ft | 220 kts | 68° |
| 2026-04-25 09:27 | 49.50678 | -2.00279 | 14764 ft | 221 kts | 68° |
| 2026-04-25 09:28 | 49.51259 | -1.98099 | 15075 ft | 222 kts | 68° |
| 2026-04-25 09:28 | 49.51853 | -1.95882 | 15384 ft | 224 kts | 67° |
| 2026-04-25 09:28 | 49.52460 | -1.93689 | 15676 ft | 225 kts | 67° |
| 2026-04-25 09:28 | 49.53084 | -1.91461 | 15968 ft | 227 kts | 67° |
| 2026-04-25 09:29 | 49.53709 | -1.89235 | 16280 ft | 229 kts | 67° |
| 2026-04-25 09:29 | 49.54344 | -1.86963 | 16621 ft | 230 kts | 67° |
| 2026-04-25 09:29 | 49.54971 | -1.84702 | 16931 ft | 232 kts | 67° |
| 2026-04-25 09:29 | 49.55603 | -1.82428 | 17243 ft | 233 kts | 67° |
| 2026-04-25 09:30 | 49.56247 | -1.80118 | 17528 ft | 235 kts | 67° |
| 2026-04-25 09:30 | 49.56893 | -1.77778 | 17833 ft | 237 kts | 67° |
| 2026-04-25 09:30 | 49.57535 | -1.75451 | 18119 ft | 238 kts | 67° |
| 2026-04-25 09:30 | 49.58182 | -1.73100 | 18383 ft | 240 kts | 67° |
| 2026-04-25 09:31 | 49.58835 | -1.70709 | 18635 ft | 242 kts | 67° |
| 2026-04-25 09:31 | 49.59487 | -1.68339 | 18869 ft | 242 kts | 67° |
| 2026-04-25 09:31 | 49.60152 | -1.65937 | 19100 ft | 243 kts | 67° |
| 2026-04-25 09:31 | 49.60820 | -1.63529 | 19325 ft | 244 kts | 67° |
| 2026-04-25 09:32 | 49.61493 | -1.61109 | 19544 ft | 245 kts | 67° |
| 2026-04-25 09:32 | 49.62162 | -1.58711 | 19768 ft | 246 kts | 67° |
| 2026-04-25 09:32 | 49.62843 | -1.56282 | 19975 ft | 246 kts | 67° |
| 2026-04-25 09:32 | 49.63522 | -1.53869 | 20179 ft | 247 kts | 67° |
| 2026-04-25 09:33 | 49.64211 | -1.51433 | 20396 ft | 248 kts | 67° |
| 2026-04-25 09:33 | 49.64904 | -1.48981 | 20582 ft | 249 kts | 67° |
| 2026-04-25 09:33 | 49.65596 | -1.46545 | 20780 ft | 249 kts | 67° |
| 2026-04-25 09:33 | 49.66290 | -1.44109 | 20965 ft | 250 kts | 67° |
| 2026-04-25 09:34 | 49.66997 | -1.41628 | 21150 ft | 250 kts | 67° |
| 2026-04-25 09:34 | 49.67695 | -1.39177 | 21325 ft | 251 kts | 67° |
| 2026-04-25 09:34 | 49.68402 | -1.36697 | 21511 ft | 251 kts | 67° |
| 2026-04-25 09:34 | 49.69104 | -1.34247 | 21695 ft | 252 kts | 67° |
| 2026-04-25 09:35 | 49.69816 | -1.31763 | 21865 ft | 252 kts | 67° |
| 2026-04-25 09:35 | 49.70530 | -1.29268 | 22021 ft | 253 kts | 67° |